Time;durP1;ratioP1;P1;durP2;ratioP2;P2;SDS_P1;SDS_P2;PMS_P1;PMS_P2;Temp;Humidity;BMP_temperature;BMP_pressure;BME280_temperature;BME280_humidity;BME280_pressure;Samples;Min_cycle;Max_cycle;Signal;HPM_P1;HPM_P2
2022/09/16 00:01:18;;;;;;;4.72;1.20;;;18.80;76.90;;;;;;5068274;28;20375;-57
2022/09/16 00:03:47;;;;;;;4.22;1.20;;;18.80;76.90;;;;;;5067530;28;20032;-58
2022/09/16 00:06:26;;;;;;;4.78;1.25;;;18.80;75.70;;;;;;5068169;28;20108;-57
2022/09/16 00:08:57;;;;;;;3.28;1.20;;;18.80;74.10;;;;;;5069011;28;20344;-58
2022/09/16 00:11:25;;;;;;;3.50;1.20;;;18.80;73.70;;;;;;5061683;28;20484;-58
2022/09/16 00:13:53;;;;;;;4.15;1.20;;;18.80;74.50;;;;;;5049060;28;20017;-57
2022/09/16 00:16:25;;;;;;;4.75;1.23;;;18.80;74.70;;;;;;5048114;28;20032;-57
2022/09/16 00:18:59;;;;;;;4.32;1.10;;;18.80;75.70;;;;;;5049228;28;20103;-57
2022/09/16 00:21:29;;;;;;;4.25;1.25;;;18.90;76.30;;;;;;5049365;28;20395;-57
2022/09/16 00:23:58;;;;;;;6.28;1.20;;;18.80;76.20;;;;;;5048890;28;20112;-58
2022/09/16 00:26:26;;;;;;;3.50;1.20;;;18.80;76.40;;;;;;5058918;28;20043;-56
2022/09/16 00:28:54;;;;;;;2.90;1.00;;;18.80;76.60;;;;;;5067467;28;20020;-56
2022/09/16 00:31:22;;;;;;;3.67;1.38;;;18.90;76.40;;;;;;5069201;28;20047;-57
2022/09/16 00:33:50;;;;;;;3.38;1.17;;;18.80;75.50;;;;;;5067737;28;20068;-57
2022/09/16 00:36:20;;;;;;;3.80;1.30;;;18.80;76.10;;;;;;5067759;28;20020;-57
2022/09/16 00:38:51;;;;;;;4.03;1.20;;;18.80;75.90;;;;;;5068542;28;20075;-56
2022/09/16 00:41:23;;;;;;;3.10;1.08;;;18.90;76.00;;;;;;5056508;28;20110;-57
2022/09/16 00:43:58;;;;;;;4.32;1.20;;;18.80;76.50;;;;;;5048441;28;20090;-57
2022/09/16 00:46:50;;;;;;;3.65;1.20;;;18.80;75.90;;;;;;5047876;28;20040;-57
2022/09/16 00:49:24;;;;;;;5.18;1.20;;;18.90;76.20;;;;;;5047477;28;20036;-57
2022/09/16 00:51:56;;;;;;;3.50;1.20;;;18.80;76.20;;;;;;5048985;28;20025;-57
2022/09/16 00:54:26;;;;;;;3.40;1.13;;;18.80;76.00;;;;;;5047233;28;20131;-57
2022/09/16 00:56:56;;;;;;;2.65;1.00;;;18.90;76.00;;;;;;5066361;28;20044;-57
2022/09/16 00:59:31;;;;;;;3.67;1.27;;;18.80;75.90;;;;;;5068661;28;20395;-57
2022/09/16 01:02:07;;;;;;;2.80;1.00;;;18.80;75.80;;;;;;5069138;28;20044;-57
2022/09/16 01:04:46;;;;;;;3.88;1.10;;;18.80;75.80;;;;;;5068796;28;20107;-57
2022/09/16 01:07:15;;;;;;;3.25;1.13;;;18.80;75.80;;;;;;5068956;28;20070;-57
2022/09/16 01:09:43;;;;;;;3.78;1.23;;;18.90;76.00;;;;;;5066429;28;20021;-57
2022/09/16 01:12:11;;;;;;;3.50;1.20;;;18.80;75.00;;;;;;5047833;28;20082;-58
2022/09/16 01:14:55;;;;;;;2.72;1.10;;;18.80;74.40;;;;;;5048907;28;20027;-57
2022/09/16 01:17:27;;;;;;;4.53;1.20;;;18.90;74.80;;;;;;5051169;28;20033;-57
2022/09/16 01:19:58;;;;;;;5.57;1.23;;;18.90;75.20;;;;;;5050768;28;20029;-57
2022/09/16 01:22:39;;;;;;;4.63;1.40;;;18.90;75.30;;;;;;5052181;28;20040;-56
2022/09/16 01:25:10;;;;;;;3.17;1.00;;;18.90;75.00;;;;;;5050771;28;20279;-57
2022/09/16 01:27:50;;;;;;;4.15;1.48;;;18.90;74.90;;;;;;5052620;28;20057;-57
2022/09/16 01:30:41;;;;;;;3.75;1.13;;;18.90;74.30;;;;;;5051796;28;20021;-57
2022/09/16 01:33:30;;;;;;;3.35;1.13;;;19.00;74.50;;;;;;5051270;28;20086;-56
2022/09/16 01:36:29;;;;;;;3.92;1.33;;;18.90;74.60;;;;;;5050526;28;20049;-57
2022/09/16 01:39:28;;;;;;;3.85;1.50;;;18.90;73.90;;;;;;5051210;28;20470;-58
2022/09/16 01:42:29;;;;;;;3.80;1.20;;;18.90;74.00;;;;;;5051946;28;20036;-56
2022/09/16 01:45:07;;;;;;;3.60;1.20;;;18.90;73.30;;;;;;5051341;28;20021;-57
2022/09/16 01:47:56;;;;;;;3.40;1.25;;;18.90;73.70;;;;;;5051961;28;20670;-56
2022/09/16 01:50:48;;;;;;;3.53;1.17;;;19.00;73.10;;;;;;5066709;28;20032;-56
2022/09/16 01:53:35;;;;;;;4.88;1.55;;;18.90;72.70;;;;;;5051785;28;20021;-58
2022/09/16 01:56:14;;;;;;;4.45;1.10;;;18.90;73.00;;;;;;5069801;28;20029;-56
2022/09/16 01:59:12;;;;;;;2.78;1.10;;;19.00;72.90;;;;;;5069978;28;20025;-58
2022/09/16 02:02:00;;;;;;;3.00;1.13;;;18.90;73.30;;;;;;5070734;28;20040;-57
2022/09/16 02:04:36;;;;;;;4.20;1.38;;;19.00;73.50;;;;;;5070235;28;20043;-56
2022/09/16 02:07:06;;;;;;;4.40;1.20;;;19.00;73.40;;;;;;5071652;28;20109;-57
2022/09/16 02:09:43;;;;;;;3.30;1.20;;;19.00;73.30;;;;;;5060886;28;20025;-57
2022/09/16 02:12:18;;;;;;;3.95;1.20;;;19.00;73.30;;;;;;5084585;28;20115;-60
2022/09/16 02:14:49;;;;;;;3.45;1.10;;;18.90;73.20;;;;;;5051171;28;20029;-57
2022/09/16 02:17:21;;;;;;;3.72;1.50;;;19.00;73.30;;;;;;5051661;28;20158;-57
2022/09/16 02:20:08;;;;;;;4.00;1.20;;;19.00;73.20;;;;;;5049887;28;20033;-57
2022/09/16 02:22:48;;;;;;;5.65;1.20;;;19.00;73.20;;;;;;5049954;28;20051;-57
2022/09/16 02:25:19;;;;;;;4.75;1.23;;;19.00;73.20;;;;;;5067173;28;20105;-57
2022/09/16 02:27:49;;;;;;;3.15;1.20;;;19.00;73.00;;;;;;5070656;28;20124;-58
2022/09/16 02:30:20;;;;;;;3.47;1.20;;;19.00;73.10;;;;;;5070674;28;20036;-57
2022/09/16 02:32:59;;;;;;;5.95;1.40;;;19.00;73.20;;;;;;5071229;28;20040;-57
2022/09/16 02:35:29;;;;;;;3.45;1.17;;;19.00;73.00;;;;;;5070697;28;20051;-57
2022/09/16 02:38:06;;;;;;;5.40;1.25;;;19.00;71.50;;;;;;5070979;28;20028;-57
2022/09/16 02:40:41;;;;;;;4.28;1.30;;;19.00;68.70;;;;;;5050227;28;20049;-58
2022/09/16 02:43:09;;;;;;;4.13;1.20;;;19.00;67.50;;;;;;5051408;28;20068;-56
2022/09/16 02:46:06;;;;;;;3.03;1.10;;;19.00;65.80;;;;;;5050665;28;20021;-57
2022/09/16 02:48:56;;;;;;;3.47;1.42;;;19.10;64.80;;;;;;5050475;28;20109;-56
2022/09/16 02:51:45;;;;;;;4.30;1.20;;;19.10;61.60;;;;;;5050720;28;20083;-57
2022/09/16 02:54:33;;;;;;;3.22;1.08;;;19.10;61.00;;;;;;5060427;28;20067;-56
2022/09/16 02:57:01;;;;;;;2.95;1.05;;;19.10;62.80;;;;;;5070706;28;20099;-57
2022/09/16 02:59:29;;;;;;;3.35;1.10;;;19.10;62.70;;;;;;5068417;28;20020;-57
2022/09/16 03:02:00;;;;;;;5.32;1.20;;;19.10;62.80;;;;;;5069202;28;20041;-57
2022/09/16 03:04:29;;;;;;;3.88;1.27;;;19.10;61.90;;;;;;5064557;28;20092;-57
2022/09/16 03:06:57;;;;;;;3.05;1.05;;;19.10;61.00;;;;;;5050267;28;20021;-57
2022/09/16 03:09:28;;;;;;;3.75;1.10;;;19.10;59.10;;;;;;5049979;28;20024;-57
2022/09/16 03:12:14;;;;;;;4.72;1.17;;;19.10;56.00;;;;;;5050363;28;20056;-57
2022/09/16 03:15:05;;;;;;;3.08;1.02;;;19.10;54.90;;;;;;5048422;28;20094;-58
2022/09/16 03:17:55;;;;;;;4.47;1.10;;;19.20;54.20;;;;;;5048693;28;20028;-57
2022/09/16 03:20:32;;;;;;;4.63;1.20;;;19.20;53.50;;;;;;5048412;28;20056;-57
2022/09/16 03:23:19;;;;;;;3.17;1.00;;;19.20;53.10;;;;;;5048961;28;20056;-57
2022/09/16 03:25:58;;;;;;;2.92;1.00;;;19.20;54.00;;;;;;5049930;28;20032;-57
2022/09/16 03:28:57;;;;;;;3.30;1.10;;;19.20;55.30;;;;;;5049517;28;20511;-57
2022/09/16 03:31:49;;;;;;;3.00;1.10;;;19.20;56.90;;;;;;5048893;28;20037;-57
2022/09/16 03:34:59;;;;;;;2.78;0.95;;;19.20;57.00;;;;;;5048382;28;20107;-57
2022/09/16 03:37:33;;;;;;;3.58;1.10;;;19.20;55.60;;;;;;4971966;28;20022;-57
2022/09/16 03:40:09;;;;;;;2.47;0.95;;;19.20;55.00;;;;;;4986727;28;20097;-57
2022/09/16 03:42:44;;;;;;;3.92;1.10;;;19.20;54.10;;;;;;5025591;28;20072;-56
2022/09/16 03:45:19;;;;;;;2.33;0.90;;;19.20;53.90;;;;;;5049123;28;20025;-57
2022/09/16 03:47:48;;;;;;;4.10;1.27;;;19.30;53.00;;;;;;5048517;28;20036;-57
2022/09/16 03:50:18;;;;;;;3.67;1.10;;;19.30;52.80;;;;;;5049349;28;20028;-57
2022/09/16 03:52:46;;;;;;;4.88;1.40;;;19.30;51.90;;;;;;5048597;28;20017;-57
2022/09/16 03:55:15;;;;;;;2.92;1.08;;;19.30;50.90;;;;;;5049093;28;20027;-56
2022/09/16 03:57:44;;;;;;;2.17;0.90;;;19.40;50.70;;;;;;5049530;28;20032;-56
2022/09/16 04:00:14;;;;;;;5.57;1.23;;;19.40;52.00;;;;;;5049420;28;20352;-58
2022/09/16 04:02:43;;;;;;;2.17;0.95;;;19.40;53.20;;;;;;5049679;28;20033;-56
2022/09/16 04:05:11;;;;;;;4.97;1.05;;;19.40;55.30;;;;;;5049606;28;20027;-56
2022/09/16 04:07:40;;;;;;;3.10;1.13;;;19.40;54.90;;;;;;5048347;28;20044;-55
2022/09/16 04:10:11;;;;;;;3.63;1.08;;;19.40;52.30;;;;;;5048016;28;20041;-56
2022/09/16 04:12:39;;;;;;;3.45;1.05;;;19.40;51.90;;;;;;5049976;28;20053;-57
2022/09/16 04:15:07;;;;;;;3.05;1.00;;;19.40;52.80;;;;;;5049340;28;20088;-57
2022/09/16 04:17:36;;;;;;;3.85;1.40;;;19.40;51.60;;;;;;5048217;28;20025;-56
2022/09/16 04:20:06;;;;;;;4.55;1.10;;;19.40;51.70;;;;;;5031086;28;20464;-56
2022/09/16 04:22:34;;;;;;;4.25;1.10;;;19.40;51.90;;;;;;5059980;28;20044;-57
2022/09/16 04:25:03;;;;;;;3.05;1.10;;;19.40;52.30;;;;;;5068749;28;20021;-56
2022/09/16 04:27:31;;;;;;;3.38;0.80;;;19.40;52.50;;;;;;5065129;28;20032;-57
2022/09/16 04:29:59;;;;;;;3.60;1.10;;;19.50;51.80;;;;;;5031136;28;20041;-57
2022/09/16 04:32:27;;;;;;;4.10;1.10;;;19.50;54.00;;;;;;5049525;28;20025;-57
2022/09/16 04:34:55;;;;;;;3.53;1.02;;;19.50;55.00;;;;;;5049049;28;20036;-56
2022/09/16 04:37:24;;;;;;;3.20;1.05;;;19.50;55.40;;;;;;5048291;28;20044;-57
2022/09/16 04:39:52;;;;;;;3.85;0.93;;;19.50;54.80;;;;;;5048629;28;20045;-57
2022/09/16 04:42:20;;;;;;;2.63;1.00;;;19.40;55.40;;;;;;5049252;28;20045;-56
2022/09/16 04:44:48;;;;;;;3.08;1.00;;;19.40;54.40;;;;;;5048989;28;20036;-56
2022/09/16 04:47:17;;;;;;;3.33;1.10;;;19.40;53.70;;;;;;5049352;28;20503;-57
2022/09/16 04:49:44;;;;;;;3.80;1.00;;;19.40;53.30;;;;;;5048770;28;20017;-57
2022/09/16 04:52:13;;;;;;;3.50;1.00;;;19.50;52.60;;;;;;5052713;28;20100;-57
2022/09/16 04:54:41;;;;;;;3.13;1.08;;;19.50;52.90;;;;;;5068744;28;20025;-57
2022/09/16 04:57:10;;;;;;;2.05;0.80;;;19.50;54.20;;;;;;5071880;28;20032;-57
2022/09/16 04:59:38;;;;;;;4.47;1.05;;;19.50;53.80;;;;;;5071269;28;20021;-57
2022/09/16 05:02:06;;;;;;;3.65;1.10;;;19.50;54.10;;;;;;5072633;28;20344;-57
2022/09/16 05:04:34;;;;;;;3.08;1.25;;;19.50;54.20;;;;;;5065841;28;20100;-56
2022/09/16 05:07:03;;;;;;;2.67;0.93;;;19.50;53.00;;;;;;5052795;28;20033;-57
2022/09/16 05:09:30;;;;;;;2.63;0.93;;;19.50;52.10;;;;;;5052056;28;20094;-57
2022/09/16 05:11:58;;;;;;;4.13;1.20;;;19.50;53.00;;;;;;5051119;28;20114;-56
2022/09/16 05:14:27;;;;;;;3.42;1.10;;;19.50;53.60;;;;;;5051940;28;20021;-56
2022/09/16 05:16:56;;;;;;;4.38;1.05;;;19.50;54.50;;;;;;5052554;28;20115;-57
2022/09/16 05:19:24;;;;;;;3.60;0.80;;;19.50;55.20;;;;;;5052154;28;20021;-57
2022/09/16 05:21:55;;;;;;;2.90;0.90;;;19.50;54.90;;;;;;5051091;28;20041;-57
2022/09/16 05:24:24;;;;;;;3.65;1.00;;;19.50;54.30;;;;;;5051839;28;20024;-57
2022/09/16 05:26:52;;;;;;;4.40;1.23;;;19.50;53.50;;;;;;5052640;28;20463;-56
2022/09/16 05:29:20;;;;;;;4.03;1.20;;;19.50;53.30;;;;;;5051751;28;20025;-56
2022/09/16 05:31:49;;;;;;;3.00;0.90;;;19.50;53.30;;;;;;5052312;28;20421;-56
2022/09/16 05:34:27;;;;;;;3.42;1.00;;;19.50;54.80;;;;;;5051909;28;20482;-56
2022/09/16 05:36:56;;;;;;;5.43;1.20;;;19.50;55.60;;;;;;5052245;28;20044;-56
2022/09/16 05:39:24;;;;;;;3.42;1.05;;;19.50;56.00;;;;;;5058550;28;20045;-56
2022/09/16 05:41:56;;;;;;;2.30;1.00;;;19.50;55.70;;;;;;5052013;28;20446;-56
2022/09/16 05:44:26;;;;;;;6.32;1.30;;;19.50;54.90;;;;;;5051587;28;20021;-56
2022/09/16 05:46:54;;;;;;;4.57;1.30;;;19.50;52.30;;;;;;5052190;28;20025;-56
2022/09/16 05:49:23;;;;;;;2.75;1.00;;;19.50;52.80;;;;;;5051581;28;20079;-56
2022/09/16 05:51:52;;;;;;;5.72;1.88;;;19.50;53.10;;;;;;5052743;28;20013;-57
2022/09/16 05:54:22;;;;;;;5.72;1.20;;;19.60;54.00;;;;;;5071127;28;20116;-57
2022/09/16 05:56:51;;;;;;;3.30;1.08;;;19.60;54.70;;;;;;5072046;28;20060;-56
2022/09/16 05:59:19;;;;;;;4.13;1.17;;;19.50;55.20;;;;;;5069908;28;20328;-56
2022/09/16 06:01:48;;;;;;;4.13;1.13;;;19.60;55.90;;;;;;5071119;28;20021;-56
2022/09/16 06:04:15;;;;;;;3.15;1.20;;;19.50;55.80;;;;;;5071278;28;20048;-56
2022/09/16 06:06:46;;;;;;;2.85;1.10;;;19.60;55.90;;;;;;5069073;28;20458;-56
2022/09/16 06:09:20;;;;;;;4.68;1.20;;;19.50;56.20;;;;;;5051056;28;20025;-56
2022/09/16 06:11:52;;;;;;;4.30;1.20;;;19.50;55.40;;;;;;5051663;28;20025;-56
2022/09/16 06:14:21;;;;;;;3.83;1.15;;;19.50;55.70;;;;;;5050902;28;20029;-56
2022/09/16 06:16:49;;;;;;;4.32;1.40;;;19.50;55.70;;;;;;5083507;28;20025;-57
2022/09/16 06:19:19;;;;;;;3.80;1.10;;;19.50;56.20;;;;;;5050719;28;20032;-57
2022/09/16 06:21:50;;;;;;;2.20;0.88;;;19.50;56.20;;;;;;5051432;28;20028;-57
2022/09/16 06:24:19;;;;;;;4.60;1.20;;;19.50;56.00;;;;;;5049371;28;20027;-57
2022/09/16 06:26:48;;;;;;;4.13;1.30;;;19.50;55.60;;;;;;5050037;28;20033;-57
2022/09/16 06:29:17;;;;;;;3.45;1.02;;;19.40;55.90;;;;;;5050579;28;20029;-56
2022/09/16 06:31:45;;;;;;;3.50;1.00;;;19.50;56.10;;;;;;5051157;28;20100;-57
2022/09/16 06:34:17;;;;;;;3.83;1.20;;;19.50;56.30;;;;;;5050855;28;20029;-58
2022/09/16 06:36:47;;;;;;;2.85;1.00;;;19.50;55.90;;;;;;5049620;28;20028;-56
2022/09/16 06:39:16;;;;;;;4.35;1.20;;;19.40;55.70;;;;;;5065551;28;20091;-57
2022/09/16 06:41:47;;;;;;;3.67;1.10;;;19.40;55.20;;;;;;5051117;28;20024;-57
2022/09/16 06:44:16;;;;;;;3.65;1.10;;;19.40;55.90;;;;;;5050388;28;20032;-57
2022/09/16 06:46:44;;;;;;;4.50;1.20;;;19.40;55.60;;;;;;5051057;28;20117;-56
2022/09/16 06:49:12;;;;;;;4.28;1.25;;;19.40;55.80;;;;;;5049295;28;20035;-57
2022/09/16 06:51:40;;;;;;;4.28;1.30;;;19.40;55.60;;;;;;5057827;28;20040;-57
2022/09/16 06:54:13;;;;;;;4.13;1.30;;;19.40;55.80;;;;;;5070811;28;20059;-57
2022/09/16 06:56:41;;;;;;;6.22;1.15;;;19.50;56.20;;;;;;5069740;28;20101;-57
2022/09/16 06:59:13;;;;;;;4.32;1.20;;;19.40;55.70;;;;;;5070806;28;20024;-56
2022/09/16 07:01:41;;;;;;;4.88;1.23;;;19.50;55.00;;;;;;5071442;28;20501;-57
2022/09/16 07:04:12;;;;;;;5.38;1.48;;;19.50;53.80;;;;;;5067967;28;20120;-56
2022/09/16 07:06:40;;;;;;;3.35;1.10;;;19.50;53.80;;;;;;5049388;28;20616;-57
2022/09/16 07:09:09;;;;;;;5.53;1.25;;;19.50;54.60;;;;;;5048970;28;20033;-57
2022/09/16 07:11:39;;;;;;;2.40;0.90;;;19.50;54.60;;;;;;5050816;28;20032;-57
2022/09/16 07:14:08;;;;;;;2.47;0.90;;;19.50;55.20;;;;;;5048635;28;20519;-56
2022/09/16 07:16:36;;;;;;;5.38;1.38;;;19.50;53.60;;;;;;5050408;28;20021;-57
2022/09/16 07:19:04;;;;;;;4.18;1.25;;;19.60;53.30;;;;;;5050084;28;20033;-57
2022/09/16 07:21:36;;;;;;;4.10;1.10;;;19.60;53.60;;;;;;5060851;28;20182;-57
2022/09/16 07:24:04;;;;;;;3.50;1.10;;;19.60;54.20;;;;;;5068411;28;20466;-57
2022/09/16 07:26:36;;;;;;;3.67;1.17;;;19.60;53.80;;;;;;5068780;28;20459;-57
2022/09/16 07:29:06;;;;;;;5.20;1.42;;;19.60;54.10;;;;;;5068400;28;20029;-57
2022/09/16 07:31:36;;;;;;;3.20;0.95;;;19.60;55.30;;;;;;5070129;28;20029;-57
2022/09/16 07:34:08;;;;;;;3.88;1.05;;;19.50;54.70;;;;;;5068231;28;20117;-57
2022/09/16 07:36:43;;;;;;;6.25;1.10;;;19.60;53.10;;;;;;5055161;28;20031;-57
2022/09/16 07:39:12;;;;;;;5.10;1.17;;;19.50;53.80;;;;;;5049580;28;20060;-56
2022/09/16 07:41:43;;;;;;;4.47;1.15;;;19.50;54.10;;;;;;5050520;28;20450;-56
2022/09/16 07:44:17;;;;;;;3.13;1.02;;;19.50;54.40;;;;;;5047819;28;20079;-56
2022/09/16 07:46:46;;;;;;;3.45;1.20;;;19.50;54.10;;;;;;5049857;28;20025;-56
2022/09/16 07:49:15;;;;;;;6.32;1.33;;;19.50;53.90;;;;;;5048052;28;20068;-56
2022/09/16 07:51:47;;;;;;;3.95;1.15;;;19.50;54.50;;;;;;5048406;28;20021;-57
2022/09/16 07:54:18;;;;;;;4.22;1.35;;;19.50;54.30;;;;;;5049148;28;20032;-57
2022/09/16 07:56:47;;;;;;;3.60;1.20;;;19.50;54.40;;;;;;5048708;28;20112;-57
2022/09/16 07:59:18;;;;;;;3.35;1.23;;;19.50;54.90;;;;;;5047706;28;20499;-57
2022/09/16 08:01:47;;;;;;;4.93;1.33;;;19.50;55.00;;;;;;5049763;28;20040;-56
2022/09/16 08:04:16;;;;;;;3.65;1.30;;;19.40;54.90;;;;;;5049130;28;20048;-56
2022/09/16 08:06:45;;;;;;;3.17;1.10;;;19.50;55.20;;;;;;5049761;28;20124;-56
2022/09/16 08:09:14;;;;;;;4.60;1.40;;;19.50;55.50;;;;;;5047599;28;20025;-57
2022/09/16 08:11:42;;;;;;;4.53;1.20;;;19.40;56.50;;;;;;5049653;28;20094;-56
2022/09/16 08:14:10;;;;;;;5.95;1.35;;;19.50;56.20;;;;;;5049217;28;20475;-56
2022/09/16 08:16:38;;;;;;;3.25;1.20;;;19.50;56.10;;;;;;5049912;28;20063;-56
2022/09/16 08:19:06;;;;;;;4.47;1.30;;;19.50;56.20;;;;;;5049138;28;20440;-56
2022/09/16 08:21:34;;;;;;;4.05;1.25;;;19.50;56.40;;;;;;5049587;28;20124;-56
2022/09/16 08:24:02;;;;;;;3.97;1.30;;;19.50;56.40;;;;;;5053705;28;20024;-56
2022/09/16 08:26:31;;;;;;;3.75;1.30;;;19.50;56.40;;;;;;5072164;28;20028;-56
2022/09/16 08:28:58;;;;;;;3.70;1.35;;;19.50;56.60;;;;;;5068045;28;20426;-55
2022/09/16 08:31:27;;;;;;;6.15;1.10;;;19.50;56.70;;;;;;5052045;28;20070;-56
2022/09/16 08:33:55;;;;;;;4.28;1.25;;;19.50;56.60;;;;;;5055675;28;20507;-56
2022/09/16 08:36:25;;;;;;;4.15;1.40;;;19.50;56.60;;;;;;5073014;28;20415;-56
2022/09/16 08:38:56;;;;;;;4.80;1.52;;;19.50;56.80;;;;;;5071025;28;20396;-57
2022/09/16 08:41:59;;;;;;;4.82;1.30;;;19.50;57.00;;;;;;5073130;28;20120;-56
2022/09/16 08:44:36;;;;;;;3.35;1.25;;;19.50;57.00;;;;;;5072662;28;20033;-56
2022/09/16 08:47:14;;;;;;;5.95;1.60;;;19.50;57.10;;;;;;5073107;28;20079;-56
2022/09/16 08:49:49;;;;;;;3.90;1.52;;;19.40;57.10;;;;;;5072777;28;20024;-56
2022/09/16 08:52:31;;;;;;;5.07;1.45;;;19.50;57.20;;;;;;5053236;28;20035;-56
2022/09/16 08:55:09;;;;;;;4.35;1.40;;;19.40;57.20;;;;;;5052472;28;20100;-56
2022/09/16 08:57:59;;;;;;;5.47;1.77;;;19.40;57.40;;;;;;5052032;28;20033;-56
2022/09/16 09:00:28;;;;;;;5.43;1.70;;;19.40;57.50;;;;;;5052316;28;20035;-57
2022/09/16 09:03:14;;;;;;;5.20;1.70;;;19.40;57.70;;;;;;5052864;28;20036;-56
2022/09/16 09:05:55;;;;;;;5.38;1.85;;;19.40;57.80;;;;;;5060847;28;20028;-57
2022/09/16 09:08:42;;;;;;;5.13;1.70;;;19.40;57.80;;;;;;5070447;28;20103;-57
2022/09/16 09:11:31;;;;;;;4.68;1.77;;;19.40;57.70;;;;;;5071900;28;20036;-56
2022/09/16 09:14:37;;;;;;;6.00;1.70;;;19.40;57.80;;;;;;5072205;28;20028;-56
2022/09/16 09:17:24;;;;;;;5.72;1.85;;;19.40;58.40;;;;;;5010823;28;20516;-56
2022/09/16 09:19:55;;;;;;;5.10;1.80;;;19.40;58.80;;;;;;5010361;28;20041;-56
2022/09/16 09:22:44;;;;;;;5.53;1.77;;;19.40;59.10;;;;;;5035154;28;20041;-56
2022/09/16 09:25:42;;;;;;;5.25;1.80;;;19.40;59.10;;;;;;5051101;28;20057;-56
2022/09/16 09:28:34;;;;;;;5.65;1.88;;;19.50;59.20;;;;;;5051840;28;20424;-56
2022/09/16 09:31:19;;;;;;;5.45;1.83;;;19.50;59.30;;;;;;5050935;28;20707;-56
2022/09/16 09:33:58;;;;;;;6.30;2.17;;;19.50;59.20;;;;;;5052019;28;20386;-56
2022/09/16 09:36:59;;;;;;;5.53;1.80;;;19.50;59.10;;;;;;5051113;28;20094;-56
2022/09/16 09:39:51;;;;;;;5.00;2.00;;;19.50;59.20;;;;;;5046839;28;20055;-56
2022/09/16 09:42:28;;;;;;;;;;;19.50;59.30;;;;;;5052425;28;20110;-55
2022/09/16 09:45:12;;;;;;;6.38;1.95;;;19.50;59.40;;;;;;5050265;28;19916;-56
2022/09/16 09:47:58;;;;;;;5.13;1.75;;;19.50;59.60;;;;;;5051091;28;20021;-57
2022/09/16 09:50:35;;;;;;;7.38;2.10;;;19.50;59.50;;;;;;5050416;28;20044;-56
2022/09/16 09:53:17;;;;;;;5.05;1.98;;;19.50;59.50;;;;;;5052043;28;20368;-57
2022/09/16 09:55:46;;;;;;;6.97;1.88;;;19.40;59.60;;;;;;5051404;28;20029;-57
2022/09/16 09:58:28;;;;;;;5.20;1.80;;;19.40;59.60;;;;;;5051652;28;20025;-56
2022/09/16 10:00:57;;;;;;;4.88;1.73;;;19.50;59.70;;;;;;5052069;28;20021;-57
2022/09/16 10:03:27;;;;;;;5.03;1.70;;;19.40;59.60;;;;;;5051275;28;20126;-56
2022/09/16 10:05:56;;;;;;;4.97;1.70;;;19.50;59.60;;;;;;5053511;28;20021;-56
2022/09/16 10:08:32;;;;;;;6.97;2.03;;;19.50;59.70;;;;;;5070515;28;20021;-56
2022/09/16 10:11:02;;;;;;;6.18;2.03;;;19.50;59.70;;;;;;5071651;28;20025;-56
2022/09/16 10:13:31;;;;;;;4.22;1.70;;;19.40;59.70;;;;;;5070986;28;20028;-56
2022/09/16 10:16:30;;;;;;;6.07;1.85;;;19.40;59.60;;;;;;5071448;28;20046;-57
2022/09/16 10:19:02;;;;;;;6.45;2.03;;;19.50;59.70;;;;;;5059661;28;20402;-56
2022/09/16 10:21:49;;;;;;;5.18;1.90;;;19.40;59.80;;;;;;5071397;28;20060;-56
2022/09/16 10:24:39;;;;;;;5.28;1.90;;;19.50;59.80;;;;;;5054597;28;20120;-57
2022/09/16 10:27:39;;;;;;;4.85;1.67;;;19.50;59.50;;;;;;5051474;28;20028;-56
2022/09/16 10:30:15;;;;;;;5.22;1.60;;;19.50;59.40;;;;;;5027207;28;20506;-55
2022/09/16 10:32:59;;;;;;;5.22;1.80;;;19.50;59.30;;;;;;5051062;28;20542;-56
2022/09/16 10:35:30;;;;;;;4.70;1.77;;;19.50;59.20;;;;;;5050795;28;20499;-56
2022/09/16 10:38:18;;;;;;;6.40;1.50;;;19.50;59.20;;;;;;5033277;28;20101;-57
2022/09/16 10:40:59;;;;;;;4.90;1.65;;;19.50;59.30;;;;;;5051046;28;20029;-57
2022/09/16 10:43:30;;;;;;;7.40;2.30;;;19.50;59.20;;;;;;5050307;28;20048;-56
2022/09/16 10:45:59;;;;;;;4.57;1.50;;;19.50;59.00;;;;;;5050930;28;20342;-57
2022/09/16 10:48:29;;;;;;;4.78;1.73;;;19.50;59.10;;;;;;5055781;28;20467;-56
2022/09/16 10:50:58;;;;;;;5.32;1.80;;;19.50;60.00;;;;;;5070925;28;20025;-57
2022/09/16 10:53:40;;;;;;;5.10;1.70;;;19.50;59.30;;;;;;5070085;28;20024;-56
2022/09/16 10:56:20;;;;;;;4.35;1.52;;;19.50;59.60;;;;;;5071180;28;20032;-56
2022/09/16 10:58:48;;;;;;;5.70;2.03;;;19.50;59.40;;;;;;5069983;28;20031;-57
2022/09/16 11:01:34;;;;;;;4.70;1.65;;;19.50;59.60;;;;;;5070468;28;20020;-57
2022/09/16 11:04:15;;;;;;;5.57;1.88;;;19.50;59.60;;;;;;5068363;28;20036;-56
2022/09/16 11:07:14;;;;;;;5.22;1.70;;;19.50;59.60;;;;;;5070371;28;20085;-57
2022/09/16 11:10:12;;;;;;;5.88;1.85;;;19.50;59.70;;;;;;5068916;28;20031;-57
2022/09/16 11:13:02;;;;;;;5.45;1.63;;;19.50;59.70;;;;;;5069606;28;20040;-57
2022/09/16 11:15:51;;;;;;;4.88;1.80;;;19.50;59.80;;;;;;5070007;28;20044;-56
2022/09/16 11:18:25;;;;;;;5.22;1.92;;;19.50;59.80;;;;;;5058120;28;20044;-56
2022/09/16 11:21:02;;;;;;;5.50;1.83;;;19.50;59.80;;;;;;5064668;28;20024;-56
2022/09/16 11:23:48;;;;;;;3.90;1.50;;;19.50;59.80;;;;;;5065695;28;20033;-56
2022/09/16 11:26:17;;;;;;;5.32;1.90;;;19.50;59.80;;;;;;5050337;28;20017;-56
2022/09/16 11:29:27;;;;;;;4.85;1.83;;;19.50;59.80;;;;;;5049563;28;20463;-56
2022/09/16 11:32:17;;;;;;;6.75;1.75;;;19.50;59.80;;;;;;5050383;28;20032;-56
2022/09/16 11:35:06;;;;;;;4.82;1.55;;;19.50;59.70;;;;;;5050015;28;20107;-56
2022/09/16 11:38:03;;;;;;;6.22;1.80;;;19.50;59.50;;;;;;5050187;28;20021;-56
2022/09/16 11:40:53;;;;;;;4.95;1.70;;;19.50;59.50;;;;;;5048319;28;20059;-57
2022/09/16 11:44:02;;;;;;;6.18;1.80;;;19.50;59.50;;;;;;5049539;28;20032;-56
2022/09/16 11:46:39;;;;;;;5.68;1.60;;;19.50;59.50;;;;;;5050483;28;20029;-56
2022/09/16 11:49:32;;;;;;;6.32;1.80;;;19.50;59.60;;;;;;5050349;28;20494;-57
2022/09/16 11:52:21;;;;;;;4.65;1.83;;;19.50;59.60;;;;;;5050008;28;20325;-57
2022/09/16 11:55:25;;;;;;;5.40;1.40;;;19.50;59.40;;;;;;5049086;28;20044;-56
2022/09/16 11:58:17;;;;;;;5.97;1.50;;;19.50;59.50;;;;;;5048378;28;20025;-58
2022/09/16 12:00:48;;;;;;;6.05;1.85;;;19.50;59.60;;;;;;5047571;28;20033;-58
2022/09/16 12:03:28;;;;;;;4.13;1.70;;;19.50;59.60;;;;;;5049392;28;20037;-55
2022/09/16 12:06:05;;;;;;;4.30;1.30;;;19.50;59.50;;;;;;5049910;28;20025;-58
2022/09/16 12:09:13;;;;;;;4.85;1.63;;;19.50;59.50;;;;;;5049098;28;20051;-57
2022/09/16 12:12:24;;;;;;;6.30;2.08;;;19.50;59.40;;;;;;5049006;28;20104;-58
2022/09/16 12:15:04;;;;;;;5.43;1.60;;;19.50;59.20;;;;;;5012540;28;20456;-56
2022/09/16 12:17:38;;;;;;;4.13;1.45;;;19.50;59.30;;;;;;5049317;28;20040;-57
2022/09/16 12:20:15;;;;;;;6.70;1.70;;;19.50;59.40;;;;;;5048238;28;20021;-55
2022/09/16 12:22:51;;;;;;;4.07;1.48;;;19.50;59.30;;;;;;5047958;28;20095;-57
2022/09/16 12:25:27;;;;;;;4.13;1.40;;;19.50;59.20;;;;;;5047550;28;20478;-56
2022/09/16 12:28:02;;;;;;;5.45;1.63;;;19.50;59.20;;;;;;5048025;28;20041;-57
2022/09/16 12:30:41;;;;;;;4.40;1.35;;;19.50;59.10;;;;;;5048885;28;20473;-56
2022/09/16 12:33:32;;;;;;;5.03;1.40;;;19.50;59.10;;;;;;5049527;28;20029;-57
2022/09/16 12:36:14;;;;;;;4.35;1.33;;;19.50;59.10;;;;;;5049451;28;20032;-57
2022/09/16 12:38:42;;;;;;;4.80;1.50;;;19.50;59.00;;;;;;5048408;28;20464;-57
2022/09/16 12:41:42;;;;;;;4.18;1.27;;;19.50;59.10;;;;;;5049725;28;20448;-56
2022/09/16 12:44:25;;;;;;;3.75;1.25;;;19.50;59.10;;;;;;5018087;28;20086;-55
2022/09/16 12:47:12;;;;;;;5.63;1.30;;;19.50;59.00;;;;;;5048928;28;20025;-56
2022/09/16 12:50:01;;;;;;;4.53;1.48;;;19.50;58.70;;;;;;5047975;28;20029;-56
2022/09/16 12:52:46;;;;;;;3.20;1.17;;;19.50;58.90;;;;;;5049198;28;20029;-56
2022/09/16 12:55:35;;;;;;;4.38;1.30;;;19.50;58.80;;;;;;5048541;28;20040;-56
2022/09/16 12:58:30;;;;;;;4.03;1.30;;;19.50;58.70;;;;;;5049074;28;20025;-57
2022/09/16 13:01:47;;;;;;;4.82;1.45;;;19.60;58.40;;;;;;5047661;28;20028;-57
2022/09/16 13:04:38;;;;;;;4.57;1.40;;;19.50;58.40;;;;;;5043172;28;20546;-57
2022/09/16 13:07:07;;;;;;;4.37;1.53;;;19.50;58.60;;;;;;5047893;28;20091;-57
2022/09/16 13:09:41;;;;;;;5.97;1.45;;;19.50;58.50;;;;;;5047110;28;20431;-57
2022/09/16 13:12:24;;;;;;;5.20;1.38;;;19.50;58.40;;;;;;5051304;28;20021;-57
2022/09/16 13:14:59;;;;;;;4.18;1.33;;;19.50;58.50;;;;;;5050774;28;20164;-57
2022/09/16 13:17:36;;;;;;;4.95;1.30;;;19.50;58.40;;;;;;5052380;28;20476;-57
2022/09/16 13:20:32;;;;;;;3.80;1.35;;;19.50;58.60;;;;;;5050984;28;20032;-57
2022/09/16 13:23:16;;;;;;;4.35;1.40;;;19.50;58.50;;;;;;5052398;28;20048;-57
2022/09/16 13:25:45;;;;;;;3.22;1.20;;;19.50;58.00;;;;;;5052016;28;20052;-56
2022/09/16 13:28:37;;;;;;;3.53;1.23;;;19.50;58.30;;;;;;5052379;28;20045;-56
2022/09/16 13:31:12;;;;;;;4.63;1.27;;;19.50;58.20;;;;;;5051178;28;20068;-56
2022/09/16 13:33:42;;;;;;;4.60;1.27;;;19.50;58.40;;;;;;5052362;28;20116;-56
2022/09/16 13:36:13;;;;;;;4.10;1.25;;;19.50;58.50;;;;;;5052859;28;20490;-56